sensor_id;sensor_type;location;lat;lon;timestamp;pressure;altitude;pressure_sealevel;temperature
13304;BMP280;6720;51.958;4.540;2023-02-28T00:01:32;103032.84;;;3.57
13304;BMP280;6720;51.958;4.540;2023-02-28T00:03:57;103026.09;;;3.60
13304;BMP280;6720;51.958;4.540;2023-02-28T00:06:23;103021.81;;;3.61
13304;BMP280;6720;51.958;4.540;2023-02-28T00:08:49;103019.75;;;3.54
13304;BMP280;6720;51.958;4.540;2023-02-28T00:11:16;103021.25;;;3.49
13304;BMP280;6720;51.958;4.540;2023-02-28T00:13:44;103028.19;;;3.50
13304;BMP280;6720;51.958;4.540;2023-02-28T00:16:18;103040.03;;;3.45
13304;BMP280;6720;51.958;4.540;2023-02-28T00:18:44;103037.31;;;3.42
13304;BMP280;6720;51.958;4.540;2023-02-28T00:21:10;103034.72;;;3.42
13304;BMP280;6720;51.958;4.540;2023-02-28T00:23:35;103034.72;;;3.42
13304;BMP280;6720;51.958;4.540;2023-02-28T00:26:01;103039.38;;;3.49
13304;BMP280;6720;51.958;4.540;2023-02-28T00:28:27;103043.88;;;3.53
13304;BMP280;6720;51.958;4.540;2023-02-28T00:30:52;103028.03;;;3.47
13304;BMP280;6720;51.958;4.540;2023-02-28T00:33:18;103025.06;;;3.57
13304;BMP280;6720;51.958;4.540;2023-02-28T00:35:43;103046.75;;;3.78
13304;BMP280;6720;51.958;4.540;2023-02-28T00:38:12;103053.06;;;3.83
13304;BMP280;6720;51.958;4.540;2023-02-28T00:40:55;103042.00;;;3.87
13304;BMP280;6720;51.958;4.540;2023-02-28T00:43:30;103020.69;;;3.75
13304;BMP280;6720;51.958;4.540;2023-02-28T00:45:55;103026.31;;;3.84
13304;BMP280;6720;51.958;4.540;2023-02-28T00:48:21;103035.31;;;3.92
13304;BMP280;6720;51.958;4.540;2023-02-28T00:50:48;103028.00;;;4.03
13304;BMP280;6720;51.958;4.540;2023-02-28T00:53:15;103035.38;;;4.13
13304;BMP280;6720;51.958;4.540;2023-02-28T00:55:40;103029.44;;;4.15
13304;BMP280;6720;51.958;4.540;2023-02-28T00:58:05;103031.13;;;4.15
13304;BMP280;6720;51.958;4.540;2023-02-28T01:00:31;103030.66;;;4.23
13304;BMP280;6720;51.958;4.540;2023-02-28T01:02:56;103033.53;;;4.29
13304;BMP280;6720;51.958;4.540;2023-02-28T01:05:23;103033.69;;;4.32
13304;BMP280;6720;51.958;4.540;2023-02-28T01:07:48;103038.19;;;4.36
13304;BMP280;6720;51.958;4.540;2023-02-28T01:10:14;103040.78;;;4.36
13304;BMP280;6720;51.958;4.540;2023-02-28T01:12:39;103047.84;;;4.40
13304;BMP280;6720;51.958;4.540;2023-02-28T01:15:05;103044.56;;;4.44
13304;BMP280;6720;51.958;4.540;2023-02-28T01:17:31;103050.91;;;4.51
13304;BMP280;6720;51.958;4.540;2023-02-28T01:19:56;103046.47;;;4.48
13304;BMP280;6720;51.958;4.540;2023-02-28T01:22:22;103043.41;;;4.57
13304;BMP280;6720;51.958;4.540;2023-02-28T01:24:47;103038.38;;;4.61
13304;BMP280;6720;51.958;4.540;2023-02-28T01:27:13;103035.00;;;4.62
13304;BMP280;6720;51.958;4.540;2023-02-28T01:29:38;103040.28;;;4.65
13304;BMP280;6720;51.958;4.540;2023-02-28T01:32:04;103037.69;;;4.65
13304;BMP280;6720;51.958;4.540;2023-02-28T01:34:29;103016.50;;;4.55
13304;BMP280;6720;51.958;4.540;2023-02-28T01:36:54;103033.47;;;4.67
13304;BMP280;6720;51.958;4.540;2023-02-28T01:39:20;103018.47;;;4.60
13304;BMP280;6720;51.958;4.540;2023-02-28T01:41:45;103027.16;;;4.81
13304;BMP280;6720;51.958;4.540;2023-02-28T01:47:14;103029.84;;;4.84
13304;BMP280;6720;51.958;4.540;2023-02-28T01:49:40;103008.72;;;4.75
13304;BMP280;6720;51.958;4.540;2023-02-28T01:52:06;103004.59;;;4.80
13304;BMP280;6720;51.958;4.540;2023-02-28T01:54:34;103014.66;;;4.93
13304;BMP280;6720;51.958;4.540;2023-02-28T01:57:09;103016.28;;;4.91
13304;BMP280;6720;51.958;4.540;2023-02-28T01:59:43;103013.97;;;4.97
13304;BMP280;6720;51.958;4.540;2023-02-28T02:02:18;103019.28;;;5.00
13304;BMP280;6720;51.958;4.540;2023-02-28T02:05:08;103003.44;;;4.94
13304;BMP280;6720;51.958;4.540;2023-02-28T02:07:40;103012.28;;;4.99
13304;BMP280;6720;51.958;4.540;2023-02-28T02:10:21;103002.63;;;4.95
13304;BMP280;6720;51.958;4.540;2023-02-28T02:13:37;103005.13;;;4.92
13304;BMP280;6720;51.958;4.540;2023-02-28T02:19:03;103003.72;;;5.00
13304;BMP280;6720;51.958;4.540;2023-02-28T02:38:33;102991.66;;;5.02
13304;BMP280;6720;51.958;4.540;2023-02-28T02:41:08;102990.16;;;5.07
13304;BMP280;6720;51.958;4.540;2023-02-28T02:44:27;102990.16;;;5.07
13304;BMP280;6720;51.958;4.540;2023-02-28T02:46:47;102991.91;;;5.08
13304;BMP280;6720;51.958;4.540;2023-02-28T02:49:22;102986.78;;;5.10
13304;BMP280;6720;51.958;4.540;2023-02-28T02:51:49;102982.47;;;5.10
13304;BMP280;6720;51.958;4.540;2023-02-28T02:54:28;102983.47;;;5.14
13304;BMP280;6720;51.958;4.540;2023-02-28T02:56:57;102978.34;;;5.15
13304;BMP280;6720;51.958;4.540;2023-02-28T02:59:24;102989.72;;;5.19
13304;BMP280;6720;51.958;4.540;2023-02-28T03:01:54;102988.03;;;5.19
13304;BMP280;6720;51.958;4.540;2023-02-28T03:04:22;102990.50;;;5.16
13304;BMP280;6720;51.958;4.540;2023-02-28T03:06:50;102994.03;;;5.18
13304;BMP280;6720;51.958;4.540;2023-02-28T03:09:23;102990.75;;;5.22
13304;BMP280;6720;51.958;4.540;2023-02-28T03:11:49;102996.88;;;5.24
13304;BMP280;6720;51.958;4.540;2023-02-28T03:14:26;102995.09;;;5.23
13304;BMP280;6720;51.958;4.540;2023-02-28T03:20:15;102995.81;;;5.19
13304;BMP280;6720;51.958;4.540;2023-02-28T03:22:52;103003.75;;;5.24
13304;BMP280;6720;51.958;4.540;2023-02-28T03:28:04;103002.25;;;5.29
13304;BMP280;6720;51.958;4.540;2023-02-28T03:30:36;103006.56;;;5.28
13304;BMP280;6720;51.958;4.540;2023-02-28T03:33:12;103010.91;;;5.29
13304;BMP280;6720;51.958;4.540;2023-02-28T03:35:43;103008.31;;;5.29
13304;BMP280;6720;51.958;4.540;2023-02-28T03:38:26;103006.56;;;5.28
13304;BMP280;6720;51.958;4.540;2023-02-28T03:40:59;102998.06;;;5.32
13304;BMP280;6720;51.958;4.540;2023-02-28T03:43:31;103002.66;;;5.39
13304;BMP280;6720;51.958;4.540;2023-02-28T03:46:00;103004.34;;;5.37
13304;BMP280;6720;51.958;4.540;2023-02-28T03:48:35;103001.72;;;5.37
13304;BMP280;6720;51.958;4.540;2023-02-28T03:51:05;102989.34;;;5.30
13304;BMP280;6720;51.958;4.540;2023-02-28T03:53:38;103000.19;;;5.42
13304;BMP280;6720;51.958;4.540;2023-02-28T03:56:18;103000.91;;;5.38
13304;BMP280;6720;51.958;4.540;2023-02-28T04:01:27;102994.09;;;5.42
13304;BMP280;6720;51.958;4.540;2023-02-28T04:03:53;102987.97;;;5.40
13304;BMP280;6720;51.958;4.540;2023-02-28T04:06:20;102985.44;;;5.41
13304;BMP280;6720;51.958;4.540;2023-02-28T04:08:47;103000.97;;;5.40
13304;BMP280;6720;51.958;4.540;2023-02-28T04:11:26;102989.09;;;5.46
13304;BMP280;6720;51.958;4.540;2023-02-28T04:13:53;102989.91;;;5.45
13304;BMP280;6720;51.958;4.540;2023-02-28T04:16:18;102995.97;;;5.46
13304;BMP280;6720;51.958;4.540;2023-02-28T04:18:44;102993.81;;;5.56
13304;BMP280;6720;51.958;4.540;2023-02-28T04:21:10;102997.22;;;5.55
13304;BMP280;6720;51.958;4.540;2023-02-28T04:23:36;102979.69;;;5.50
13304;BMP280;6720;51.958;4.540;2023-02-28T04:26:02;103002.53;;;5.58
13304;BMP280;6720;51.958;4.540;2023-02-28T04:28:27;103000.66;;;5.54
13304;BMP280;6720;51.958;4.540;2023-02-28T04:30:57;103006.09;;;5.60
13304;BMP280;6720;51.958;4.540;2023-02-28T04:33:22;102999.03;;;5.58
13304;BMP280;6720;51.958;4.540;2023-02-28T04:35:48;103002.34;;;5.54
13304;BMP280;6720;51.958;4.540;2023-02-28T04:38:13;103010.91;;;5.51
13304;BMP280;6720;51.958;4.540;2023-02-28T04:41:01;102999.09;;;5.59
13304;BMP280;6720;51.958;4.540;2023-02-28T04:43:58;103006.09;;;5.60
13304;BMP280;6720;51.958;4.540;2023-02-28T04:46:59;103008.84;;;5.65
13304;BMP280;6720;51.958;4.540;2023-02-28T04:49:57;103015.66;;;5.61
13304;BMP280;6720;51.958;4.540;2023-02-28T04:52:35;103016.69;;;5.66
13304;BMP280;6720;51.958;4.540;2023-02-28T04:55:01;103020.38;;;5.71
13304;BMP280;6720;51.958;4.540;2023-02-28T04:57:27;103018.50;;;5.69
13304;BMP280;6720;51.958;4.540;2023-02-28T04:59:52;103021.19;;;5.70
13304;BMP280;6720;51.958;4.540;2023-02-28T05:02:18;103027.09;;;5.66
13304;BMP280;6720;51.958;4.540;2023-02-28T05:04:43;103033.66;;;5.57
13304;BMP280;6720;51.958;4.540;2023-02-28T05:07:09;103021.69;;;5.60
13304;BMP280;6720;51.958;4.540;2023-02-28T05:09:35;103031.31;;;5.63
13304;BMP280;6720;51.958;4.540;2023-02-28T05:12:00;103024.09;;;5.56
13304;BMP280;6720;51.958;4.540;2023-02-28T05:14:25;103030.47;;;5.64
13304;BMP280;6720;51.958;4.540;2023-02-28T05:16:51;103034.66;;;5.60
13304;BMP280;6720;51.958;4.540;2023-02-28T05:19:16;103028.50;;;5.58
13304;BMP280;6720;51.958;4.540;2023-02-28T05:22:00;103011.03;;;5.54
13304;BMP280;6720;51.958;4.540;2023-02-28T05:24:25;103023.66;;;5.67
13304;BMP280;6720;51.958;4.540;2023-02-28T05:26:52;103031.44;;;5.67
13304;BMP280;6720;51.958;4.540;2023-02-28T05:29:18;103025.44;;;5.68
13304;BMP280;6720;51.958;4.540;2023-02-28T05:31:43;103034.63;;;5.59
13304;BMP280;6720;51.958;4.540;2023-02-28T05:34:09;103019.66;;;5.53
13304;BMP280;6720;51.958;4.540;2023-02-28T05:36:37;103021.91;;;5.66
13304;BMP280;6720;51.958;4.540;2023-02-28T05:39:02;103018.25;;;5.61
13304;BMP280;6720;51.958;4.540;2023-02-28T05:41:28;103026.03;;;5.61
13304;BMP280;6720;51.958;4.540;2023-02-28T05:43:53;103009.41;;;5.56
13304;BMP280;6720;51.958;4.540;2023-02-28T05:46:19;103016.56;;;5.63
13304;BMP280;6720;51.958;4.540;2023-02-28T05:48:47;103023.19;;;5.55
13304;BMP280;6720;51.958;4.540;2023-02-28T05:51:12;103025.31;;;5.65
13304;BMP280;6720;51.958;4.540;2023-02-28T05:53:38;103032.13;;;5.62
13304;BMP280;6720;51.958;4.540;2023-02-28T05:56:04;103033.97;;;5.64
13304;BMP280;6720;51.958;4.540;2023-02-28T05:58:29;103014.47;;;5.53
13304;BMP280;6720;51.958;4.540;2023-02-28T06:00:59;103034.66;;;5.60
13304;BMP280;6720;51.958;4.540;2023-02-28T06:03:26;103031.75;;;5.53
13304;BMP280;6720;51.958;4.540;2023-02-28T06:05:51;103027.88;;;5.42
13304;BMP280;6720;51.958;4.540;2023-02-28T06:08:17;103013.28;;;5.23
13304;BMP280;6720;51.958;4.540;2023-02-28T06:10:43;103004.81;;;5.07
13304;BMP280;6720;51.958;4.540;2023-02-28T06:13:09;103028.38;;;5.11
13304;BMP280;6720;51.958;4.540;2023-02-28T06:15:34;103018.41;;;4.79
13304;BMP280;6720;51.958;4.540;2023-02-28T06:18:00;103004.41;;;4.55
13304;BMP280;6720;51.958;4.540;2023-02-28T06:20:26;103019.53;;;4.86
13304;BMP280;6720;51.958;4.540;2023-02-28T06:22:57;103027.16;;;4.81
13304;BMP280;6720;51.958;4.540;2023-02-28T06:25:27;103025.69;;;4.88
13304;BMP280;6720;51.958;4.540;2023-02-28T06:27:53;103022.25;;;4.68
13304;BMP280;6720;51.958;4.540;2023-02-28T06:30:19;103030.53;;;4.80
13304;BMP280;6720;51.958;4.540;2023-02-28T06:32:49;103039.78;;;4.74
13304;BMP280;6720;51.958;4.540;2023-02-28T06:35:14;103031.28;;;4.57
13304;BMP280;6720;51.958;4.540;2023-02-28T06:37:40;103031.59;;;4.44
13304;BMP280;6720;51.958;4.540;2023-02-28T06:40:05;103030.00;;;4.48
13304;BMP280;6720;51.958;4.540;2023-02-28T06:42:32;103032.56;;;4.27
13304;BMP280;6720;51.958;4.540;2023-02-28T06:44:57;103030.69;;;4.04
13304;BMP280;6720;51.958;4.540;2023-02-28T06:47:23;103037.38;;;4.18
13304;BMP280;6720;51.958;4.540;2023-02-28T06:49:48;103042.81;;;4.24
13304;BMP280;6720;51.958;4.540;2023-02-28T06:52:14;103029.91;;;4.26
13304;BMP280;6720;51.958;4.540;2023-02-28T06:54:40;103042.81;;;4.24
13304;BMP280;6720;51.958;4.540;2023-02-28T06:57:06;103050.41;;;4.20
13304;BMP280;6720;51.958;4.540;2023-02-28T06:59:31;103038.31;;;4.20
13304;BMP280;6720;51.958;4.540;2023-02-28T07:01:57;103056.03;;;4.30
13304;BMP280;6720;51.958;4.540;2023-02-28T07:04:23;103054.44;;;4.32
13304;BMP280;6720;51.958;4.540;2023-02-28T07:06:49;103048.13;;;4.27
13304;BMP280;6720;51.958;4.540;2023-02-28T07:09:14;103061.59;;;4.38
13304;BMP280;6720;51.958;4.540;2023-02-28T07:11:40;103063.13;;;4.34
13304;BMP280;6720;51.958;4.540;2023-02-28T07:14:07;103070.69;;;4.30
13304;BMP280;6720;51.958;4.540;2023-02-28T07:16:33;103072.00;;;4.20
13304;BMP280;6720;51.958;4.540;2023-02-28T07:18:58;103072.75;;;4.18
13304;BMP280;6720;51.958;4.540;2023-02-28T07:21:24;103061.88;;;3.69
13304;BMP280;6720;51.958;4.540;2023-02-28T07:23:50;103051.09;;;3.60
13304;BMP280;6720;51.958;4.540;2023-02-28T07:26:17;103061.50;;;3.79
13304;BMP280;6720;51.958;4.540;2023-02-28T07:28:44;103060.13;;;3.68
13304;BMP280;6720;51.958;4.540;2023-02-28T07:31:10;103068.25;;;3.75
13304;BMP280;6720;51.958;4.540;2023-02-28T07:33:36;103069.06;;;3.74
13304;BMP280;6720;51.958;4.540;2023-02-28T07:36:07;103070.59;;;3.71
13304;BMP280;6720;51.958;4.540;2023-02-28T07:38:34;103067.06;;;3.69
13304;BMP280;6720;51.958;4.540;2023-02-28T07:41:01;103042.75;;;3.48
13304;BMP280;6720;51.958;4.540;2023-02-28T07:43:30;103067.44;;;3.59
13304;BMP280;6720;51.958;4.540;2023-02-28T07:46:02;103061.19;;;3.54
13304;BMP280;6720;51.958;4.540;2023-02-28T07:48:28;103069.03;;;3.55
13304;BMP280;6720;51.958;4.540;2023-02-28T07:50:55;103063.28;;;3.43
13304;BMP280;6720;51.958;4.540;2023-02-28T07:53:20;103071.53;;;3.54
13304;BMP280;6720;51.958;4.540;2023-02-28T07:55:46;103080.56;;;3.44
13304;BMP280;6720;51.958;4.540;2023-02-28T07:58:11;103079.91;;;3.48
13304;BMP280;6720;51.958;4.540;2023-02-28T08:00:36;103071.84;;;3.42
13304;BMP280;6720;51.958;4.540;2023-02-28T08:03:02;103067.25;;;3.54
13304;BMP280;6720;51.958;4.540;2023-02-28T08:05:27;103082.03;;;3.57
13304;BMP280;6720;51.958;4.540;2023-02-28T08:07:53;103081.97;;;3.55
13304;BMP280;6720;51.958;4.540;2023-02-28T08:10:18;103070.38;;;3.47
13304;BMP280;6720;51.958;4.540;2023-02-28T08:12:44;103083.41;;;3.49
13304;BMP280;6720;51.958;4.540;2023-02-28T08:15:09;103081.44;;;4.18
13304;BMP280;6720;51.958;4.540;2023-02-28T08:17:35;103084.22;;;3.67
13304;BMP280;6720;51.958;4.540;2023-02-28T08:20:01;103075.66;;;3.50
13304;BMP280;6720;51.958;4.540;2023-02-28T08:22:26;103070.16;;;3.43
13304;BMP280;6720;51.958;4.540;2023-02-28T08:24:51;103055.34;;;3.40
13304;BMP280;6720;51.958;4.540;2023-02-28T08:27:17;103065.78;;;3.42
13304;BMP280;6720;51.958;4.540;2023-02-28T08:29:42;103064.97;;;3.43
13304;BMP280;6720;51.958;4.540;2023-02-28T08:32:08;103067.84;;;3.49
13304;BMP280;6720;51.958;4.540;2023-02-28T08:34:33;103066.22;;;3.51
13304;BMP280;6720;51.958;4.540;2023-02-28T08:36:59;103067.69;;;3.46
13304;BMP280;6720;51.958;4.540;2023-02-28T08:39:27;103064.97;;;3.43
13304;BMP280;6720;51.958;4.540;2023-02-28T08:41:52;103071.31;;;3.49
13304;BMP280;6720;51.958;4.540;2023-02-28T08:44:17;103056.38;;;3.44
13304;BMP280;6720;51.958;4.540;2023-02-28T08:46:43;103062.19;;;3.57
13304;BMP280;6720;51.958;4.540;2023-02-28T08:49:10;103064.41;;;3.67
13304;BMP280;6720;51.958;4.540;2023-02-28T08:51:35;103055.06;;;3.71
13304;BMP280;6720;51.958;4.540;2023-02-28T08:54:00;103051.53;;;3.69
13304;BMP280;6720;51.958;4.540;2023-02-28T08:56:27;103062.97;;;3.74
13304;BMP280;6720;51.958;4.540;2023-02-28T08:58:55;103064.22;;;3.82
13304;BMP280;6720;51.958;4.540;2023-02-28T09:01:27;103062.59;;;3.84
13304;BMP280;6720;51.958;4.540;2023-02-28T09:03:54;103059.47;;;3.91
13304;BMP280;6720;51.958;4.540;2023-02-28T09:06:22;103063.81;;;3.92
13304;BMP280;6720;51.958;4.540;2023-02-28T09:08:48;103059.47;;;3.91
13304;BMP280;6720;51.958;4.540;2023-02-28T09:11:14;103062.75;;;4.06
13304;BMP280;6720;51.958;4.540;2023-02-28T09:13:40;103073.38;;;4.12
13304;BMP280;6720;51.958;4.540;2023-02-28T09:16:07;103064.13;;;4.17
13304;BMP280;6720;51.958;4.540;2023-02-28T09:18:37;103065.00;;;4.18
13304;BMP280;6720;51.958;4.540;2023-02-28T09:21:04;103070.06;;;4.34
13304;BMP280;6720;51.958;4.540;2023-02-28T09:23:30;103076.09;;;4.34
13304;BMP280;6720;51.958;4.540;2023-02-28T09:25:55;103066.69;;;4.36
13304;BMP280;6720;51.958;4.540;2023-02-28T09:28:21;103046.06;;;4.39
13304;BMP280;6720;51.958;4.540;2023-02-28T09:30:50;103069.28;;;4.55
13304;BMP280;6720;51.958;4.540;2023-02-28T09:33:16;103069.13;;;4.52
13304;BMP280;6720;51.958;4.540;2023-02-28T09:35:42;103084.59;;;4.70
13304;BMP280;6720;51.958;4.540;2023-02-28T09:38:09;103061.03;;;4.65
13304;BMP280;6720;51.958;4.540;2023-02-28T09:40:44;103054.69;;;4.59
13304;BMP280;6720;51.958;4.540;2023-02-28T09:43:12;103072.53;;;4.91
13304;BMP280;6720;51.958;4.540;2023-02-28T09:45:40;103075.44;;;4.98
13304;BMP280;6720;51.958;4.540;2023-02-28T09:48:13;103073.47;;;5.13
13304;BMP280;6720;51.958;4.540;2023-02-28T09:50:45;103066.50;;;5.12
13304;BMP280;6720;51.958;4.540;2023-02-28T09:53:33;103078.84;;;4.97
13304;BMP280;6720;51.958;4.540;2023-02-28T09:56:09;103088.81;;;5.07
13304;BMP280;6720;51.958;4.540;2023-02-28T10:01:12;103081.88;;;5.28
13304;BMP280;6720;51.958;4.540;2023-02-28T10:03:59;103087.91;;;5.27
13304;BMP280;6720;51.958;4.540;2023-02-28T10:06:30;103073.59;;;5.16
13304;BMP280;6720;51.958;4.540;2023-02-28T10:09:10;103079.41;;;5.11
13304;BMP280;6720;51.958;4.540;2023-02-28T10:11:39;103082.69;;;5.27
13304;BMP280;6720;51.958;4.540;2023-02-28T10:14:13;103080.16;;;5.29
13304;BMP280;6720;51.958;4.540;2023-02-28T10:22:26;103081.13;;;5.10
13304;BMP280;6720;51.958;4.540;2023-02-28T10:24:54;103080.69;;;5.20
13304;BMP280;6720;51.958;4.540;2023-02-28T10:27:29;103072.25;;;5.26
13304;BMP280;6720;51.958;4.540;2023-02-28T10:29:56;103082.03;;;5.53
13304;BMP280;6720;51.958;4.540;2023-02-28T10:32:25;103083.91;;;5.57
13304;BMP280;6720;51.958;4.540;2023-02-28T10:35:15;103088.59;;;5.66
13304;BMP280;6720;51.958;4.540;2023-02-28T10:37:46;103074.31;;;5.78
13304;BMP280;6720;51.958;4.540;2023-02-28T10:42:58;103071.00;;;6.26
13304;BMP280;6720;51.958;4.540;2023-02-28T10:45:24;103073.34;;;6.67
13304;BMP280;6720;51.958;4.540;2023-02-28T10:50:42;103066.13;;;7.10
13304;BMP280;6720;51.958;4.540;2023-02-28T10:55:41;103071.34;;;7.65
13304;BMP280;6720;51.958;4.540;2023-02-28T10:58:23;103075.09;;;8.03
13304;BMP280;6720;51.958;4.540;2023-02-28T11:00:49;103068.22;;;8.34
13304;BMP280;6720;51.958;4.540;2023-02-28T11:05:57;103062.09;;;8.65
13304;BMP280;6720;51.958;4.540;2023-02-28T11:08:22;103054.66;;;9.14
13304;BMP280;6720;51.958;4.540;2023-02-28T11:10:56;103065.53;;;8.96
13304;BMP280;6720;51.958;4.540;2023-02-28T11:13:27;103073.47;;;9.35
13304;BMP280;6720;51.958;4.540;2023-02-28T11:15:55;103059.69;;;9.42
13304;BMP280;6720;51.958;4.540;2023-02-28T11:20:50;103062.66;;;9.97
13304;BMP280;6720;51.958;4.540;2023-02-28T11:23:16;103060.66;;;9.84
13304;BMP280;6720;51.958;4.540;2023-02-28T11:25:55;103052.84;;;10.27
13304;BMP280;6720;51.958;4.540;2023-02-28T11:28:38;103043.31;;;10.29
13304;BMP280;6720;51.958;4.540;2023-02-28T11:31:16;103060.16;;;10.01
13304;BMP280;6720;51.958;4.540;2023-02-28T11:33:53;103060.44;;;9.73
13304;BMP280;6720;51.958;4.540;2023-02-28T11:36:27;103062.41;;;9.85
13304;BMP280;6720;51.958;4.540;2023-02-28T11:38:54;103054.22;;;9.70
13304;BMP280;6720;51.958;4.540;2023-02-28T11:41:36;103071.63;;;9.31
13304;BMP280;6720;51.958;4.540;2023-02-28T12:03:01;103037.13;;;10.27
13304;BMP280;6720;51.958;4.540;2023-02-28T12:05:35;103029.94;;;10.61
13304;BMP280;6720;51.958;4.540;2023-02-28T12:11:23;103014.50;;;11.32
13304;BMP280;6720;51.958;4.540;2023-02-28T12:20:12;103003.50;;;12.25
13304;BMP280;6720;51.958;4.540;2023-02-28T12:27:40;103000.22;;;12.47
13304;BMP280;6720;51.958;4.540;2023-02-28T12:32:47;103002.88;;;12.47
13304;BMP280;6720;51.958;4.540;2023-02-28T12:35:17;103011.34;;;13.10
13304;BMP280;6720;51.958;4.540;2023-02-28T12:37:53;102999.06;;;13.12
13304;BMP280;6720;51.958;4.540;2023-02-28T12:40:23;103014.22;;;11.72
13304;BMP280;6720;51.958;4.540;2023-02-28T12:42:53;103005.44;;;12.44
13304;BMP280;6720;51.958;4.540;2023-02-28T12:45:27;102998.84;;;12.87
13304;BMP280;6720;51.958;4.540;2023-02-28T12:48:00;102993.34;;;12.58
13304;BMP280;6720;51.958;4.540;2023-02-28T12:50:27;102989.41;;;13.11
13304;BMP280;6720;51.958;4.540;2023-02-28T12:53:00;102995.31;;;12.85
13304;BMP280;6720;51.958;4.540;2023-02-28T12:58:31;102984.78;;;12.80
13304;BMP280;6720;51.958;4.540;2023-02-28T13:09:03;102977.84;;;12.90
13304;BMP280;6720;51.958;4.540;2023-02-28T13:11:42;102983.38;;;13.27
13304;BMP280;6720;51.958;4.540;2023-02-28T13:19:37;102960.75;;;13.59
13304;BMP280;6720;51.958;4.540;2023-02-28T13:22:03;102968.63;;;13.61
13304;BMP280;6720;51.958;4.540;2023-02-28T13:24:41;102960.72;;;13.53
13304;BMP280;6720;51.958;4.540;2023-02-28T13:29:38;102966.78;;;13.42
13304;BMP280;6720;51.958;4.540;2023-02-28T13:34:33;102948.59;;;14.02
13304;BMP280;6720;51.958;4.540;2023-02-28T13:42:33;102952.75;;;13.37
13304;BMP280;6720;51.958;4.540;2023-02-28T13:47:39;102951.13;;;13.66
13304;BMP280;6720;51.958;4.540;2023-02-28T13:55:32;102938.09;;;14.06
13304;BMP280;6720;51.958;4.540;2023-02-28T14:08:57;102930.19;;;14.11
13304;BMP280;6720;51.958;4.540;2023-02-28T14:11:31;102921.38;;;13.89
13304;BMP280;6720;51.958;4.540;2023-02-28T14:13:57;102922.19;;;13.76
13304;BMP280;6720;51.958;4.540;2023-02-28T14:16:25;102920.63;;;14.38
13304;BMP280;6720;51.958;4.540;2023-02-28T14:21:24;102916.94;;;13.78
13304;BMP280;6720;51.958;4.540;2023-02-28T14:37:59;102929.03;;;13.31
13304;BMP280;6720;51.958;4.540;2023-02-28T14:40:30;102914.44;;;14.23
13304;BMP280;6720;51.958;4.540;2023-02-28T14:42:59;102911.78;;;14.30
13304;BMP280;6720;51.958;4.540;2023-02-28T14:45:29;102923.06;;;13.72
13304;BMP280;6720;51.958;4.540;2023-02-28T14:47:56;102906.38;;;13.64
13304;BMP280;6720;51.958;4.540;2023-02-28T14:50:32;102915.28;;;14.20
13304;BMP280;6720;51.958;4.540;2023-02-28T14:52:58;102914.44;;;14.32
13304;BMP280;6720;51.958;4.540;2023-02-28T14:55:45;102908.28;;;14.64
13304;BMP280;6720;51.958;4.540;2023-02-28T15:00:49;102902.06;;;15.05
13304;BMP280;6720;51.958;4.540;2023-02-28T15:03:24;102908.25;;;14.98
13304;BMP280;6720;51.958;4.540;2023-02-28T15:05:57;102908.28;;;14.86
13304;BMP280;6720;51.958;4.540;2023-02-28T15:08:24;102912.63;;;14.11
13304;BMP280;6720;51.958;4.540;2023-02-28T15:10:58;102911.81;;;14.39
13304;BMP280;6720;51.958;4.540;2023-02-28T15:13:38;102900.41;;;14.60
13304;BMP280;6720;51.958;4.540;2023-02-28T15:16:09;102897.78;;;14.34
13304;BMP280;6720;51.958;4.540;2023-02-28T15:21:12;102906.53;;;14.60
13304;BMP280;6720;51.958;4.540;2023-02-28T15:23:41;102908.22;;;13.95
13304;BMP280;6720;51.958;4.540;2023-02-28T15:26:13;102915.34;;;14.50
13304;BMP280;6720;51.958;4.540;2023-02-28T15:28:40;102912.69;;;14.28
13304;BMP280;6720;51.958;4.540;2023-02-28T15:31:29;102922.31;;;14.97
13304;BMP280;6720;51.958;4.540;2023-02-28T15:33:57;102920.53;;;15.08
13304;BMP280;6720;51.958;4.540;2023-02-28T15:36:29;102903.03;;;14.40
13304;BMP280;6720;51.958;4.540;2023-02-28T15:38:56;102912.69;;;14.34
13304;BMP280;6720;51.958;4.540;2023-02-28T15:41:28;102912.66;;;14.88
13304;BMP280;6720;51.958;4.540;2023-02-28T15:44:33;102909.47;;;16.19
13304;BMP280;6720;51.958;4.540;2023-02-28T15:47:02;102910.13;;;16.54
13304;BMP280;6720;51.958;4.540;2023-02-28T15:49:36;102901.97;;;16.75
13304;BMP280;6720;51.958;4.540;2023-02-28T15:52:02;102902.94;;;15.10
13304;BMP280;6720;51.958;4.540;2023-02-28T15:54:37;102895.84;;;15.28
13304;BMP280;6720;51.958;4.540;2023-02-28T15:57:06;102903.03;;;14.52
13304;BMP280;6720;51.958;4.540;2023-02-28T15:59:36;102900.28;;;13.74
13304;BMP280;6720;51.958;4.540;2023-02-28T16:02:25;102903.22;;;12.74
13304;BMP280;6720;51.958;4.540;2023-02-28T16:05:20;102898.88;;;12.82
13304;BMP280;6720;51.958;4.540;2023-02-28T16:07:53;102900.03;;;13.22
13304;BMP280;6720;51.958;4.540;2023-02-28T16:10:18;102902.16;;;14.46
13304;BMP280;6720;51.958;4.540;2023-02-28T16:12:44;102895.91;;;15.06
13304;BMP280;6720;51.958;4.540;2023-02-28T16:15:19;102900.28;;;15.14
13304;BMP280;6720;51.958;4.540;2023-02-28T16:17:45;102888.97;;;14.53
13304;BMP280;6720;51.958;4.540;2023-02-28T16:20:16;102897.66;;;13.83
13304;BMP280;6720;51.958;4.540;2023-02-28T16:22:42;102896.78;;;13.92
13304;BMP280;6720;51.958;4.540;2023-02-28T16:25:35;102903.72;;;13.55
13304;BMP280;6720;51.958;4.540;2023-02-28T16:28:01;102877.50;;;12.31
13304;BMP280;6720;51.958;4.540;2023-02-28T16:30:28;102904.44;;;12.11
13304;BMP280;6720;51.958;4.540;2023-02-28T16:32:56;102899.28;;;11.44
13304;BMP280;6720;51.958;4.540;2023-02-28T16:35:22;102896.88;;;10.96
13304;BMP280;6720;51.958;4.540;2023-02-28T16:37:50;102899.75;;;10.56
13304;BMP280;6720;51.958;4.540;2023-02-28T16:40:20;102875.41;;;10.11
13304;BMP280;6720;51.958;4.540;2023-02-28T16:42:47;102903.13;;;9.57
13304;BMP280;6720;51.958;4.540;2023-02-28T16:45:20;102899.72;;;9.61
13304;BMP280;6720;51.958;4.540;2023-02-28T16:47:46;102897.38;;;9.31
13304;BMP280;6720;51.958;4.540;2023-02-28T16:50:22;102911.88;;;9.17
13304;BMP280;6720;51.958;4.540;2023-02-28T16:52:48;102911.50;;;9.01
13304;BMP280;6720;51.958;4.540;2023-02-28T16:55:15;102925.09;;;8.86
13304;BMP280;6720;51.958;4.540;2023-02-28T16:57:41;102924.28;;;8.89
13304;BMP280;6720;51.958;4.540;2023-02-28T17:00:11;102918.72;;;8.74
13304;BMP280;6720;51.958;4.540;2023-02-28T17:02:37;102927.81;;;8.55
13304;BMP280;6720;51.958;4.540;2023-02-28T17:05:03;102927.56;;;8.45
13304;BMP280;6720;51.958;4.540;2023-02-28T17:07:29;102927.25;;;8.33
13304;BMP280;6720;51.958;4.540;2023-02-28T17:09:54;102928.00;;;8.29